Time;durP1;ratioP1;P1;durP2;ratioP2;P2;SDS_P1;SDS_P2;PMS_P1;PMS_P2;Temp;Humidity;BMP_temperature;BMP_pressure;BME280_temperature;BME280_humidity;BME280_pressure;Samples;Min_cycle;Max_cycle;Signal;HPM_P1;HPM_P2
2023/09/06 00:01:23;;;;;;;14.30;8.68;;;17.40;99.90;;;;;;5027528;28;85847;-76
2023/09/06 00:03:49;;;;;;;13.80;7.82;;;17.30;99.90;;;;;;5025581;28;86447;-75
2023/09/06 00:06:16;;;;;;;15.90;7.72;;;17.30;99.90;;;;;;5020758;27;87779;-75
2023/09/06 00:08:41;;;;;;;16.75;7.80;;;17.20;99.90;;;;;;5020310;27;86748;-75
2023/09/06 00:11:07;;;;;;;13.60;6.63;;;17.20;99.90;;;;;;5020647;28;86196;-75
2023/09/06 00:13:35;;;;;;;18.42;6.93;;;17.20;99.90;;;;;;5020527;27;86690;-75
2023/09/06 00:16:02;;;;;;;14.60;6.50;;;17.00;99.90;;;;;;5021860;28;87025;-75
2023/09/06 00:18:27;;;;;;;13.23;6.70;;;17.00;99.90;;;;;;5020466;27;86293;-75
2023/09/06 00:20:54;;;;;;;12.65;7.05;;;17.00;99.90;;;;;;5021340;27;86351;-76
2023/09/06 00:23:20;;;;;;;14.25;7.50;;;17.00;99.90;;;;;;5020233;28;86824;-75
2023/09/06 00:25:46;;;;;;;14.57;7.72;;;16.90;99.90;;;;;;5023266;28;87274;-75
2023/09/06 00:28:15;;;;;;;11.32;7.22;;;16.90;99.90;;;;;;5026271;28;86322;-75
2023/09/06 00:30:44;;;;;;;22.35;9.30;;;16.80;99.90;;;;;;5025902;28;86237;-75
2023/09/06 00:33:10;;;;;;;17.60;9.18;;;16.80;99.90;;;;;;5025681;27;86829;-75
2023/09/06 00:35:40;;;;;;;16.52;9.27;;;16.80;99.90;;;;;;5026691;27;87081;-75
2023/09/06 00:38:06;;;;;;;20.20;8.88;;;16.70;99.90;;;;;;5023151;28;86546;-75
2023/09/06 00:40:36;;;;;;;17.70;8.75;;;16.70;99.90;;;;;;5024818;28;86508;-75
2023/09/06 00:43:03;;;;;;;19.45;9.73;;;16.60;99.90;;;;;;5024874;28;86599;-75
2023/09/06 00:45:37;;;;;;;19.23;8.55;;;16.60;99.90;;;;;;5024010;27;86430;-73
2023/09/06 00:48:05;;;;;;;21.83;9.23;;;16.60;99.90;;;;;;5025026;27;87724;-75
2023/09/06 00:50:35;;;;;;;16.27;8.50;;;16.50;99.90;;;;;;5025083;28;86232;-75
2023/09/06 00:53:04;;;;;;;17.33;8.52;;;16.50;99.90;;;;;;5025961;27;85889;-75
2023/09/06 00:55:29;;;;;;;13.98;7.90;;;16.40;99.90;;;;;;5024559;28;87174;-75
2023/09/06 00:57:55;;;;;;;12.80;7.20;;;16.40;99.90;;;;;;5024857;28;86372;-75
2023/09/06 01:00:24;;;;;;;13.40;7.18;;;16.40;99.90;;;;;;5025824;27;86410;-75
2023/09/06 01:02:50;;;;;;;13.20;6.80;;;16.40;99.90;;;;;;5024789;28;86299;-75
2023/09/06 01:05:19;;;;;;;11.60;6.45;;;16.40;99.90;;;;;;5025809;27;87278;-75
2023/09/06 01:07:49;;;;;;;11.48;6.10;;;16.30;99.90;;;;;;5024080;27;86822;-74
2023/09/06 01:10:15;;;;;;;9.70;5.95;;;16.30;99.90;;;;;;5025999;28;86273;-75
2023/09/06 01:12:41;;;;;;;14.15;6.78;;;16.30;99.90;;;;;;5023832;28;86611;-76
2023/09/06 01:15:07;;;;;;;8.95;5.40;;;16.20;99.90;;;;;;5026862;27;86984;-75
2023/09/06 01:17:36;;;;;;;12.82;5.22;;;16.20;99.90;;;;;;5024819;28;86621;-75
2023/09/06 01:20:17;;;;;;;10.02;5.45;;;16.20;99.90;;;;;;5025734;27;86455;-75
2023/09/06 01:22:51;;;;;;;7.82;4.85;;;16.10;99.90;;;;;;5024765;27;86345;-75
2023/09/06 01:25:17;;;;;;;10.48;4.97;;;16.10;99.90;;;;;;5026930;27;92877;-75
2023/09/06 01:27:44;;;;;;;10.63;4.85;;;16.10;99.90;;;;;;5028926;28;86415;-75
2023/09/06 01:30:10;;;;;;;7.72;4.68;;;16.10;99.90;;;;;;5029106;27;86239;-75
2023/09/06 01:32:36;;;;;;;12.60;4.90;;;16.00;99.90;;;;;;5027981;28;86457;-75
2023/09/06 01:35:03;;;;;;;8.00;4.82;;;16.00;99.90;;;;;;5027358;28;89142;-75
2023/09/06 01:37:29;;;;;;;7.60;3.67;;;15.90;99.90;;;;;;5026317;28;86379;-75
2023/09/06 01:39:55;;;;;;;7.55;3.90;;;15.90;99.90;;;;;;5029283;28;86521;-75
2023/09/06 01:42:22;;;;;;;8.10;3.90;;;15.90;99.90;;;;;;5028172;27;86494;-75
2023/09/06 01:44:48;;;;;;;10.02;4.20;;;15.80;99.90;;;;;;5028310;27;87325;-75
2023/09/06 01:47:14;;;;;;;8.80;3.72;;;15.80;99.90;;;;;;5027998;27;86988;-75
2023/09/06 01:49:39;;;;;;;7.40;3.20;;;15.70;99.90;;;;;;5029410;28;86261;-75
2023/09/06 01:52:05;;;;;;;5.60;3.00;;;15.70;99.90;;;;;;5030904;28;86586;-75
2023/09/06 01:54:31;;;;;;;6.57;3.35;;;15.70;99.90;;;;;;5028126;27;87888;-75
2023/09/06 01:56:56;;;;;;;7.97;3.47;;;15.70;99.90;;;;;;5026637;27;86470;-75
2023/09/06 01:59:23;;;;;;;12.75;3.38;;;15.70;99.90;;;;;;5027556;27;86189;-75
2023/09/06 02:01:54;;;;;;;5.97;3.55;;;15.70;99.90;;;;;;5027989;27;88401;-75
2023/09/06 02:04:20;;;;;;;5.32;3.13;;;15.60;99.90;;;;;;5029275;27;86879;-75
2023/09/06 02:06:45;;;;;;;8.73;4.00;;;15.60;99.90;;;;;;5029398;28;86344;-74
2023/09/06 02:09:11;;;;;;;8.95;3.45;;;15.60;99.90;;;;;;5028114;27;86315;-75
2023/09/06 02:11:36;;;;;;;6.63;3.38;;;15.50;99.90;;;;;;5027141;27;87177;-75
2023/09/06 02:14:02;;;;;;;7.93;3.40;;;15.50;99.90;;;;;;5025450;28;89760;-75
2023/09/06 02:16:28;;;;;;;7.72;4.00;;;15.50;99.90;;;;;;5027557;28;86634;-75
2023/09/06 02:18:53;;;;;;;4.47;3.13;;;15.40;99.90;;;;;;5026681;28;86246;-75
2023/09/06 02:21:19;;;;;;;7.13;3.17;;;15.50;99.90;;;;;;5028042;28;86749;-74
2023/09/06 02:23:45;;;;;;;6.75;3.42;;;15.40;99.90;;;;;;5025466;28;90425;-75
2023/09/06 02:26:10;;;;;;;7.10;2.70;;;15.40;99.90;;;;;;5026522;27;86603;-75
2023/09/06 02:28:36;;;;;;;4.70;2.80;;;15.30;99.90;;;;;;5028173;27;85978;-75
2023/09/06 02:31:02;;;;;;;5.95;3.05;;;15.30;99.90;;;;;;5027864;28;86481;-75
2023/09/06 02:33:28;;;;;;;6.90;3.20;;;15.30;99.90;;;;;;5026009;27;87094;-75
2023/09/06 02:35:53;;;;;;;5.50;3.28;;;15.20;99.90;;;;;;5025425;27;86502;-75
2023/09/06 02:38:19;;;;;;;6.03;3.42;;;15.20;99.90;;;;;;5026826;28;86543;-75
2023/09/06 02:40:45;;;;;;;7.35;3.28;;;15.20;99.90;;;;;;5027715;28;86153;-75
2023/09/06 02:43:13;;;;;;;4.95;3.38;;;15.20;99.90;;;;;;5028122;28;86525;-75
2023/09/06 02:45:39;;;;;;;5.22;3.67;;;15.20;99.90;;;;;;5026152;27;86515;-76
2023/09/06 02:48:07;;;;;;;7.38;3.58;;;15.10;99.90;;;;;;5028064;28;86258;-75
2023/09/06 02:50:36;;;;;;;12.40;3.78;;;15.20;99.90;;;;;;5026190;28;86162;-75
2023/09/06 02:53:03;;;;;;;7.72;3.85;;;15.10;99.90;;;;;;5026024;28;87070;-75
2023/09/06 02:55:35;;;;;;;8.73;3.58;;;15.00;99.90;;;;;;5027227;27;86730;-75
2023/09/06 02:58:01;;;;;;;7.22;3.58;;;15.00;99.90;;;;;;5028062;27;86337;-75
2023/09/06 03:00:29;;;;;;;7.25;3.65;;;15.00;99.90;;;;;;5026798;28;86508;-75
2023/09/06 03:03:05;;;;;;;8.00;3.60;;;15.00;99.90;;;;;;5026776;28;87356;-75
2023/09/06 03:05:31;;;;;;;6.43;3.20;;;14.90;99.90;;;;;;5026217;27;86535;-75
2023/09/06 03:07:57;;;;;;;7.70;3.00;;;14.90;99.90;;;;;;5028075;27;86518;-75
2023/09/06 03:10:23;;;;;;;6.95;3.70;;;14.90;99.90;;;;;;5027343;27;86701;-75
2023/09/06 03:12:56;;;;;;;8.90;3.20;;;14.80;99.90;;;;;;5026968;28;87014;-75
2023/09/06 03:15:22;;;;;;;10.93;3.13;;;14.80;99.90;;;;;;5025030;28;93628;-75
2023/09/06 03:17:53;;;;;;;7.03;2.75;;;14.80;99.90;;;;;;5025920;28;86742;-75
2023/09/06 03:20:19;;;;;;;6.70;3.22;;;14.70;99.90;;;;;;5026984;28;86014;-75
2023/09/06 03:22:51;;;;;;;10.60;3.08;;;14.70;99.90;;;;;;5024435;27;87910;-74
2023/09/06 03:25:17;;;;;;;5.63;2.70;;;14.70;99.90;;;;;;5026823;27;86675;-74
2023/09/06 03:27:43;;;;;;;4.63;3.00;;;14.60;99.90;;;;;;5026755;28;86073;-74
2023/09/06 03:30:10;;;;;;;5.43;2.97;;;14.60;99.90;;;;;;5026490;27;85863;-75
2023/09/06 03:32:35;;;;;;;6.13;2.90;;;14.70;99.90;;;;;;5025166;27;86813;-75
2023/09/06 03:35:04;;;;;;;5.82;2.85;;;14.60;99.90;;;;;;5026379;27;86856;-75
2023/09/06 03:37:30;;;;;;;5.90;2.97;;;14.60;99.90;;;;;;5026083;28;86482;-75
2023/09/06 03:39:56;;;;;;;7.03;2.80;;;14.60;99.90;;;;;;5026454;27;86261;-75
2023/09/06 03:42:23;;;;;;;6.53;3.38;;;14.60;99.90;;;;;;5023625;28;90694;-75
2023/09/06 03:44:49;;;;;;;8.35;3.75;;;14.50;99.90;;;;;;5025435;27;87060;-75
2023/09/06 03:47:16;;;;;;;8.35;3.55;;;14.50;99.90;;;;;;5024009;27;86635;-75
2023/09/06 03:49:43;;;;;;;7.35;2.95;;;14.50;99.90;;;;;;5023507;28;86502;-75
2023/09/06 03:52:10;;;;;;;5.32;2.60;;;14.40;99.90;;;;;;5025657;28;86936;-75
2023/09/06 03:54:37;;;;;;;6.10;3.63;;;14.50;99.90;;;;;;5025293;28;88818;-75
2023/09/06 03:57:07;;;;;;;10.55;3.38;;;14.40;99.90;;;;;;5023489;28;86735;-75
2023/09/06 03:59:35;;;;;;;10.50;3.35;;;14.40;99.90;;;;;;5025239;27;86890;-75
2023/09/06 04:02:13;;;;;;;6.15;2.42;;;14.40;99.90;;;;;;5023721;28;90077;-75
2023/09/06 04:04:39;;;;;;;8.38;2.53;;;14.30;99.90;;;;;;5026334;28;87677;-74
2023/09/06 04:07:07;;;;;;;5.35;3.50;;;14.30;99.90;;;;;;5026401;28;86508;-74
2023/09/06 04:09:37;;;;;;;6.30;2.95;;;14.20;99.90;;;;;;5024129;27;86487;-75
2023/09/06 04:12:05;;;;;;;6.97;3.40;;;14.30;99.90;;;;;;5026008;28;87427;-75
2023/09/06 04:14:35;;;;;;;6.70;2.83;;;14.20;99.90;;;;;;5024533;28;87034;-75
2023/09/06 04:17:01;;;;;;;10.73;3.85;;;14.20;99.90;;;;;;5024939;28;86624;-75
2023/09/06 04:19:26;;;;;;;3.83;2.78;;;14.20;99.90;;;;;;5026502;28;86332;-75
2023/09/06 04:21:52;;;;;;;7.28;2.90;;;14.10;99.90;;;;;;5024597;28;89849;-74
2023/09/06 04:24:20;;;;;;;5.72;3.20;;;14.20;99.90;;;;;;5027407;27;86613;-74
2023/09/06 04:26:46;;;;;;;8.63;3.33;;;14.20;99.90;;;;;;5022492;28;86496;-75
2023/09/06 04:29:11;;;;;;;11.10;3.30;;;14.10;99.90;;;;;;5025174;27;86418;-75
2023/09/06 04:31:41;;;;;;;8.98;3.25;;;14.10;99.90;;;;;;5024157;27;86099;-74
2023/09/06 04:34:07;;;;;;;10.77;3.38;;;14.10;99.90;;;;;;5025179;28;86617;-75
2023/09/06 04:36:36;;;;;;;10.95;3.50;;;14.10;99.90;;;;;;5026229;27;86667;-75
2023/09/06 04:39:02;;;;;;;11.73;3.55;;;14.00;99.90;;;;;;5026114;27;85982;-75
2023/09/06 04:41:31;;;;;;;16.98;3.97;;;14.00;99.90;;;;;;5024777;28;90365;-75
2023/09/06 04:43:56;;;;;;;9.38;4.40;;;14.00;99.90;;;;;;5023801;28;88615;-75
2023/09/06 04:46:22;;;;;;;11.55;4.00;;;14.00;99.90;;;;;;5024711;27;86090;-74
2023/09/06 04:48:48;;;;;;;8.02;3.85;;;14.00;99.90;;;;;;5026151;28;86979;-75
2023/09/06 04:51:14;;;;;;;6.60;3.53;;;14.00;99.90;;;;;;5026324;27;87477;-75
2023/09/06 04:53:40;;;;;;;7.72;3.72;;;13.90;99.90;;;;;;5024984;27;86472;-75
2023/09/06 04:56:06;;;;;;;3.22;2.80;;;13.90;99.90;;;;;;5024857;27;85786;-75
2023/09/06 04:58:33;;;;;;;15.18;3.80;;;13.90;99.90;;;;;;5026516;27;85987;-75
2023/09/06 05:01:06;;;;;;;8.77;3.70;;;13.80;99.90;;;;;;5028079;28;90633;-75
2023/09/06 05:03:33;;;;;;;5.72;3.45;;;13.80;99.90;;;;;;5030803;27;85987;-75
2023/09/06 05:06:00;;;;;;;8.27;4.00;;;13.80;99.90;;;;;;5029970;27;85856;-75
2023/09/06 05:08:25;;;;;;;9.93;3.78;;;13.80;99.90;;;;;;5029363;27;86287;-75
2023/09/06 05:10:54;;;;;;;12.80;3.78;;;13.80;99.90;;;;;;5029845;28;86456;-75
2023/09/06 05:13:19;;;;;;;10.55;4.20;;;13.80;99.90;;;;;;5028251;27;86965;-74
2023/09/06 05:15:45;;;;;;;8.45;3.80;;;13.80;99.90;;;;;;5030826;28;85984;-75
2023/09/06 05:18:11;;;;;;;8.65;3.80;;;13.80;99.90;;;;;;5029320;27;86527;-75
2023/09/06 05:20:39;;;;;;;7.75;3.58;;;13.80;99.90;;;;;;5030191;27;87380;-75
2023/09/06 05:23:11;;;;;;;12.30;3.63;;;13.80;99.90;;;;;;5028078;28;87274;-74
2023/09/06 05:25:38;;;;;;;9.73;4.20;;;13.80;99.90;;;;;;5028973;27;86789;-75
2023/09/06 05:28:09;;;;;;;8.90;3.50;;;13.80;99.90;;;;;;5028753;28;86116;-75
2023/09/06 05:30:38;;;;;;;9.85;4.35;;;13.80;99.90;;;;;;5028898;27;87554;-75
2023/09/06 05:33:05;;;;;;;5.90;3.75;;;13.80;99.90;;;;;;5028515;27;86721;-75
2023/09/06 05:35:31;;;;;;;8.07;3.90;;;13.80;99.90;;;;;;5026531;27;86392;-75
2023/09/06 05:37:56;;;;;;;6.97;3.70;;;13.80;99.90;;;;;;5027543;28;94538;-75
2023/09/06 05:40:23;;;;;;;8.20;3.35;;;13.80;99.90;;;;;;5028323;28;86479;-74
2023/09/06 05:42:49;;;;;;;13.45;4.15;;;13.90;99.90;;;;;;5027509;28;89064;-75
2023/09/06 05:45:15;;;;;;;14.23;4.00;;;13.90;99.90;;;;;;5028248;27;86389;-74
2023/09/06 05:47:41;;;;;;;14.18;4.10;;;14.00;99.90;;;;;;5024745;28;86773;-75
2023/09/06 05:50:08;;;;;;;12.52;4.63;;;14.10;99.90;;;;;;5027689;27;86372;-74
2023/09/06 05:52:34;;;;;;;18.73;4.30;;;14.10;99.90;;;;;;5027588;27;87096;-75
2023/09/06 05:55:01;;;;;;;22.83;4.90;;;14.10;99.90;;;;;;5028959;28;86208;-75
2023/09/06 05:57:26;;;;;;;20.85;4.53;;;14.20;99.90;;;;;;5029056;27;86478;-75
2023/09/06 05:59:52;;;;;;;27.63;4.80;;;14.20;99.90;;;;;;5027152;27;88058;-74
2023/09/06 06:02:19;;;;;;;28.80;5.60;;;14.30;99.90;;;;;;5027012;28;86358;-75
2023/09/06 06:04:45;;;;;;;8.02;3.75;;;14.40;99.90;;;;;;5027914;27;87001;-74
2023/09/06 06:07:15;;;;;;;10.70;3.85;;;14.40;99.90;;;;;;5028936;28;85832;-74
2023/09/06 06:09:42;;;;;;;36.78;6.13;;;14.50;99.90;;;;;;5025501;27;87067;-75
2023/09/06 06:12:08;;;;;;;59.05;8.15;;;14.60;99.90;;;;;;5028166;27;86892;-75
2023/09/06 06:14:35;;;;;;;41.95;6.50;;;14.70;99.90;;;;;;5026763;27;86501;-74
2023/09/06 06:17:05;;;;;;;41.00;6.82;;;14.80;99.90;;;;;;5028027;27;87009;-75
2023/09/06 08:02:18;;;;;;;;;;;;;;;;;;;;;
2023/09/06 08:04:44;;;;;;;8.60;4.40;;;20.10;99.90;;;;;;5012518;28;115349;-74
2023/09/06 08:07:10;;;;;;;7.47;4.15;;;20.20;99.90;;;;;;5036879;28;86866;-74
2023/09/06 08:09:37;;;;;;;11.65;5.05;;;20.30;99.90;;;;;;5018421;28;86624;-75
2023/09/06 08:12:05;;;;;;;8.25;4.03;;;20.50;99.90;;;;;;5024999;28;86742;-74
2023/09/06 08:21:04;;;;;;;7.60;3.65;;;20.90;99.90;;;;;;4953406;28;86426;-75
2023/09/06 08:23:30;;;;;;;14.80;4.03;;;21.10;99.50;;;;;;4953624;28;86431;-76
2023/09/06 08:25:56;;;;;;;12.70;4.53;;;21.20;99.10;;;;;;4953009;28;86593;-75
2023/09/06 08:28:21;;;;;;;7.80;4.28;;;21.40;99.00;;;;;;4983040;27;86265;-75
2023/09/06 08:30:47;;;;;;;7.43;3.30;;;21.50;98.80;;;;;;5005884;28;86717;-75
2023/09/06 08:33:14;;;;;;;7.07;3.58;;;21.70;98.10;;;;;;5035154;27;86879;-77
2023/09/06 08:35:39;;;;;;;9.07;3.83;;;21.80;98.30;;;;;;5038063;27;87283;-76
2023/09/06 08:38:05;;;;;;;11.35;3.25;;;22.00;97.70;;;;;;5036609;27;86849;-76
2023/09/06 08:40:31;;;;;;;6.25;2.85;;;22.20;97.80;;;;;;5019568;27;86476;-76
2023/09/06 08:43:05;;;;;;;10.35;3.63;;;22.30;96.40;;;;;;5020354;28;86534;-76
2023/09/06 08:45:33;;;;;;;7.20;2.95;;;22.50;96.70;;;;;;5037176;27;87699;-76
2023/09/06 08:47:59;;;;;;;9.93;3.38;;;22.70;96.80;;;;;;5037283;27;87008;-75
2023/09/06 08:50:25;;;;;;;6.05;2.80;;;22.90;95.80;;;;;;5035332;27;86347;-76
2023/09/06 08:52:53;;;;;;;6.15;2.78;;;23.10;95.80;;;;;;5035985;27;86419;-75
2023/09/06 08:55:19;;;;;;;5.10;3.00;;;23.30;95.60;;;;;;5037170;28;87946;-75
2023/09/06 08:57:46;;;;;;;7.40;3.83;;;23.50;94.50;;;;;;5037319;28;86897;-76
2023/09/06 09:00:13;;;;;;;8.60;2.80;;;23.60;94.80;;;;;;5036331;27;91530;-76
2023/09/06 09:02:40;;;;;;;5.28;2.60;;;23.90;94.90;;;;;;5011945;28;86380;-76
2023/09/06 09:05:06;;;;;;;4.32;2.88;;;24.00;92.30;;;;;;5034339;28;87334;-75
2023/09/06 09:07:32;;;;;;;12.90;3.67;;;24.20;93.50;;;;;;5008562;27;90169;-76
2023/09/06 09:14:04;;;;;;;;;;;;;;;;;;;;;
2023/09/06 09:24:08;;;;;;;12.82;3.17;;;25.40;92.60;;;;;;4844515;28;86279;-78
2023/09/06 10:43:49;;;;;;;6.60;2.38;;;31.80;65.70;;;;;;4697199;29;86908;-77
2023/09/06 10:46:43;;;;;;;4.60;2.30;;;32.00;63.70;;;;;;4718356;29;86262;-77
2023/09/06 10:50:01;;;;;;;7.05;2.53;;;32.30;69.30;;;;;;4841066;28;86443;-76
2023/09/06 10:52:56;;;;;;;9.35;2.28;;;32.60;65.00;;;;;;4861920;28;91423;-77
2023/09/06 10:55:49;;;;;;;6.50;2.10;;;32.90;66.50;;;;;;4883551;28;88079;-77
2023/09/06 10:58:26;;;;;;;3.10;1.85;;;33.00;62.90;;;;;;4874513;28;86514;-77
2023/09/06 11:01:24;;;;;;;;;;;;;;;;;;;;;
2023/09/06 11:13:35;;;;;;;;;;;;;;;;;;;;;
2023/09/06 11:20:20;;;;;;;2.60;1.63;;;34.10;60.50;;;;;;4943076;28;91503;-77
2023/09/06 11:23:38;;;;;;;3.70;1.60;;;34.30;59.30;;;;;;4909860;28;87926;-78
2023/09/06 11:54:00;;;;;;;2.85;1.40;;;35.70;53.10;;;;;;4811495;29;86638;-77
2023/09/06 11:56:39;;;;;;;;;;;;;;;;;;;;;
2023/09/06 11:59:17;;;;;;;;;;;;;;;;;;;;;
2023/09/06 12:01:44;;;;;;;3.10;1.30;;;36.10;49.20;;;;;;5022539;27;108425;-77
2023/09/06 12:04:16;;;;;;;3.53;1.90;;;36.10;52.20;;;;;;5007639;28;86111;-77
2023/09/06 12:06:43;;;;;;;2.60;1.73;;;36.20;52.20;;;;;;5008020;28;90183;-77
2023/09/06 12:09:12;;;;;;;5.00;2.33;;;36.30;51.40;;;;;;5008089;28;86468;-77
2023/09/06 12:11:38;;;;;;;4.70;2.08;;;36.50;52.50;;;;;;5007589;28;85841;-77
2023/09/06 12:14:04;;;;;;;5.13;2.80;;;36.60;51.00;;;;;;5008065;28;86542;-76
2023/09/06 12:16:31;;;;;;;4.20;2.10;;;36.70;52.70;;;;;;5006087;28;89647;-77
2023/09/06 12:18:59;;;;;;;5.75;2.33;;;36.90;52.40;;;;;;5009852;28;86481;-77
2023/09/06 12:21:25;;;;;;;5.75;2.90;;;37.20;52.80;;;;;;5007890;28;86556;-77
2023/09/06 12:23:51;;;;;;;3.72;1.90;;;37.40;52.20;;;;;;5010779;28;86136;-77
2023/09/06 12:26:18;;;;;;;4.18;2.55;;;37.50;52.30;;;;;;5007620;28;87121;-77
2023/09/06 12:28:44;;;;;;;3.58;1.90;;;37.70;52.80;;;;;;5009468;28;86885;-76
2023/09/06 12:31:11;;;;;;;2.83;1.95;;;37.70;50.30;;;;;;5015606;28;86450;-77
2023/09/06 12:33:37;;;;;;;6.05;2.25;;;37.70;51.30;;;;;;5009147;28;86077;-77
2023/09/06 12:36:05;;;;;;;3.75;1.52;;;37.50;49.00;;;;;;5008329;28;86422;-76
2023/09/06 12:38:32;;;;;;;2.42;1.77;;;37.50;51.10;;;;;;5005882;28;86641;-76
2023/09/06 12:40:58;;;;;;;6.60;2.03;;;37.70;48.90;;;;;;5001859;28;86226;-77
2023/09/06 12:43:26;;;;;;;4.20;1.60;;;37.80;48.10;;;;;;4994958;28;86801;-77
2023/09/06 12:45:57;;;;;;;3.45;1.65;;;37.90;49.40;;;;;;5001956;28;90023;-77
2023/09/06 12:48:26;;;;;;;4.72;1.63;;;38.00;50.00;;;;;;5009270;28;86810;-78
2023/09/06 12:50:52;;;;;;;3.63;1.63;;;38.10;50.40;;;;;;5008884;28;86350;-78
2023/09/06 12:53:20;;;;;;;3.35;1.60;;;38.40;51.20;;;;;;5006823;28;86559;-76
2023/09/06 12:55:51;;;;;;;5.18;1.70;;;38.60;50.30;;;;;;5005721;28;86582;-78
2023/09/06 12:58:24;;;;;;;5.38;1.58;;;38.80;44.40;;;;;;5011711;28;86137;-78
2023/09/06 13:01:00;;;;;;;4.03;1.58;;;38.80;47.80;;;;;;4999951;28;86614;-78
2023/09/06 13:03:28;;;;;;;4.75;1.83;;;38.80;47.00;;;;;;4998521;28;86475;-78
2023/09/06 13:05:55;;;;;;;2.22;1.55;;;38.90;48.50;;;;;;5006230;28;89215;-77
2023/09/06 13:08:30;;;;;;;5.82;1.75;;;39.10;47.90;;;;;;5006694;28;86997;-78
2023/09/06 13:10:58;;;;;;;3.60;1.40;;;39.30;48.30;;;;;;5016079;28;86280;-78
2023/09/06 13:13:36;;;;;;;1.85;1.33;;;39.40;46.60;;;;;;5007407;28;86492;-78
2023/09/06 13:16:27;;;;;;;4.70;1.90;;;39.50;46.90;;;;;;5008417;28;87553;-77
2023/09/06 13:19:05;;;;;;;5.47;1.70;;;39.60;46.20;;;;;;4934397;28;94252;-78
2023/09/06 13:22:00;;;;;;;4.35;1.50;;;39.80;46.70;;;;;;4988538;28;86211;-78
2023/09/06 13:24:46;;;;;;;4.20;1.25;;;40.00;46.70;;;;;;5003233;28;86052;-78
2023/09/06 13:27:32;;;;;;;4.00;1.30;;;40.20;45.80;;;;;;5005771;28;90800;-77
2023/09/06 13:30:18;;;;;;;2.20;1.30;;;40.20;46.00;;;;;;5013908;28;89283;-77
2023/09/06 13:33:27;;;;;;;2.33;1.50;;;40.30;44.60;;;;;;5014247;28;87184;-77
2023/09/06 13:36:00;;;;;;;3.15;1.08;;;40.60;44.60;;;;;;5006323;28;86613;-77
2023/09/06 13:39:07;;;;;;;4.20;1.08;;;40.60;43.50;;;;;;4983373;28;90764;-77
2023/09/06 13:41:34;;;;;;;2.05;1.02;;;41.00;44.30;;;;;;4991087;28;88100;-77
2023/09/06 13:44:27;;;;;;;2.58;1.27;;;41.20;42.90;;;;;;4986882;28;86611;-78
2023/09/06 13:47:28;;;;;;;2.13;1.08;;;41.20;44.10;;;;;;4955204;28;86861;-78
2023/09/06 13:49:57;;;;;;;3.13;1.00;;;41.30;43.40;;;;;;4974007;28;91004;-77
2023/09/06 13:52:22;;;;;;;2.35;1.42;;;41.50;43.80;;;;;;5003677;28;89998;-77
2023/09/06 13:54:50;;;;;;;3.17;1.33;;;41.40;43.00;;;;;;5009421;28;86610;-78
2023/09/06 13:57:16;;;;;;;1.05;0.88;;;41.50;44.00;;;;;;5005168;28;86598;-78
2023/09/06 13:59:42;;;;;;;0.95;0.95;;;41.70;43.50;;;;;;5006259;28;86588;-78
2023/09/06 14:02:08;;;;;;;3.80;1.30;;;41.80;42.50;;;;;;5004296;28;87212;-78
2023/09/06 14:04:47;;;;;;;2.85;1.00;;;42.00;42.70;;;;;;5008315;28;86413;-78
2023/09/06 14:07:13;;;;;;;1.75;1.00;;;42.10;41.80;;;;;;5016319;28;86464;-78
2023/09/06 14:09:44;;;;;;;4.88;1.23;;;42.10;42.40;;;;;;5006924;28;86730;-78
2023/09/06 14:12:23;;;;;;;3.72;1.25;;;42.20;42.20;;;;;;5022894;27;90097;-78
2023/09/06 14:15:12;;;;;;;4.15;0.88;;;42.40;41.40;;;;;;4990224;28;86507;-78
2023/09/06 14:28:29;;;;;;;;;;;;;;;;;;;;;
2023/09/06 14:31:31;;;;;;;;;;;;;;;;;;;;;
2023/09/06 14:50:24;;;;;;;6.60;1.88;;;43.40;39.40;;;;;;4856674;29;88250;-79
2023/09/06 14:53:01;;;;;;;4.25;1.90;;;43.30;38.90;;;;;;4912038;28;86863;-78
2023/09/06 14:55:31;;;;;;;3.90;2.00;;;43.40;39.80;;;;;;4942904;28;86416;-78
2023/09/06 14:58:14;;;;;;;10.07;2.17;;;43.60;39.60;;;;;;4974257;27;89816;-79
2023/09/06 15:00:51;;;;;;;2.95;1.60;;;43.60;39.40;;;;;;5013589;28;89079;-78
2023/09/06 15:03:17;;;;;;;3.58;2.20;;;43.70;39.20;;;;;;5008589;28;87405;-78
2023/09/06 15:05:46;;;;;;;6.55;2.10;;;43.90;39.20;;;;;;5004768;28;86787;-78
2023/09/06 15:08:16;;;;;;;7.78;2.50;;;44.00;39.20;;;;;;5008177;28;87677;-78
2023/09/06 15:10:44;;;;;;;9.15;2.00;;;44.00;38.00;;;;;;4993271;28;88972;-78
2023/09/06 15:13:19;;;;;;;4.53;2.30;;;44.00;37.70;;;;;;5021618;28;85830;-78
2023/09/06 15:15:48;;;;;;;4.60;1.70;;;43.90;38.20;;;;;;5010475;28;89364;-78
2023/09/06 15:18:13;;;;;;;7.10;2.08;;;43.80;38.10;;;;;;5017364;28;88593;-78
2023/09/06 15:21:19;;;;;;;5.95;2.78;;;43.70;38.20;;;;;;5006616;28;90564;-78
2023/09/06 15:23:47;;;;;;;3.53;2.47;;;43.80;38.20;;;;;;5005884;28;86111;-78
2023/09/06 15:26:24;;;;;;;4.18;2.50;;;43.60;38.60;;;;;;5000304;28;86269;-78
2023/09/06 15:28:50;;;;;;;5.30;2.10;;;43.60;38.00;;;;;;5004271;28;89509;-78
2023/09/06 15:31:21;;;;;;;3.40;2.08;;;43.60;38.50;;;;;;5003265;28;90721;-77
2023/09/06 15:33:47;;;;;;;3.60;2.00;;;43.60;38.60;;;;;;4983111;28;90619;-77
2023/09/06 15:36:15;;;;;;;5.10;2.15;;;43.60;37.70;;;;;;5005976;28;86324;-77
2023/09/06 15:38:41;;;;;;;3.17;2.00;;;43.60;38.00;;;;;;5006479;28;88315;-77
2023/09/06 15:41:17;;;;;;;4.68;2.10;;;43.80;38.50;;;;;;4996922;28;94317;-78
2023/09/06 15:43:44;;;;;;;3.30;1.83;;;43.60;38.60;;;;;;4999531;28;86267;-77
2023/09/06 15:46:10;;;;;;;4.45;1.83;;;43.70;38.80;;;;;;5009676;28;86201;-77
2023/09/06 15:52:25;;;;;;;;;;;;;;;;;;;;;
2023/09/06 16:05:13;;;;;;;;;;;;;;;;;;;;;
2023/09/06 16:11:56;;;;;;;;;;;;;;;;;;;;;
2023/09/06 16:14:24;;;;;;;2.30;2.10;;;43.80;38.40;;;;;;4878102;28;114330;-75
2023/09/06 16:16:50;;;;;;;6.47;2.65;;;43.70;38.40;;;;;;4991069;28;87279;-76
2023/09/06 16:19:17;;;;;;;3.70;2.90;;;43.60;37.90;;;;;;5009074;28;86435;-76
2023/09/06 16:21:43;;;;;;;4.28;2.30;;;43.60;37.70;;;;;;5009703;28;86378;-76
2023/09/06 16:24:09;;;;;;;6.22;1.90;;;43.50;37.80;;;;;;5015204;28;87388;-76
2023/09/06 16:26:34;;;;;;;2.95;2.00;;;43.30;37.90;;;;;;5008633;28;87651;-76
2023/09/06 16:29:00;;;;;;;7.20;2.03;;;43.10;38.40;;;;;;5010635;28;86493;-76
2023/09/06 16:31:26;;;;;;;3.60;1.90;;;43.00;37.80;;;;;;5007972;28;86583;-76
2023/09/06 16:33:52;;;;;;;4.68;2.05;;;42.90;38.00;;;;;;5008447;28;87870;-76
2023/09/06 16:36:18;;;;;;;4.35;2.25;;;42.70;37.80;;;;;;5009009;28;87115;-77
2023/09/06 16:38:44;;;;;;;2.30;1.88;;;42.60;38.10;;;;;;5008850;28;85884;-77
2023/09/06 16:41:10;;;;;;;4.63;2.08;;;42.20;39.00;;;;;;5007517;28;86564;-76
2023/09/06 16:43:37;;;;;;;4.72;2.03;;;41.70;39.60;;;;;;5009755;28;87015;-76
2023/09/06 16:46:04;;;;;;;4.22;1.92;;;41.60;38.90;;;;;;5008284;28;90180;-76
2023/09/06 16:48:30;;;;;;;4.93;2.22;;;41.60;38.70;;;;;;5006719;28;86130;-76
2023/09/06 16:50:58;;;;;;;2.17;1.95;;;41.60;39.40;;;;;;5007040;28;86745;-76
2023/09/06 16:53:23;;;;;;;3.22;1.88;;;41.50;39.80;;;;;;5006690;28;86862;-74
2023/09/06 16:55:49;;;;;;;5.10;1.98;;;41.30;39.60;;;;;;5004887;28;86803;-74
2023/09/06 16:58:20;;;;;;;4.38;2.10;;;41.20;39.70;;;;;;5004854;28;86435;-75
2023/09/06 17:01:01;;;;;;;4.25;2.22;;;40.90;39.80;;;;;;4990970;28;86622;-75
2023/09/06 17:03:46;;;;;;;4.00;1.70;;;40.80;39.80;;;;;;4991917;28;87722;-75
2023/09/06 17:06:17;;;;;;;2.38;1.95;;;40.60;40.30;;;;;;5018250;27;88246;-74
2023/09/06 17:08:54;;;;;;;3.70;2.08;;;40.40;40.10;;;;;;5002543;28;86904;-74
2023/09/06 17:11:25;;;;;;;4.68;2.15;;;39.90;40.40;;;;;;4998454;28;86426;-74
2023/09/06 17:13:56;;;;;;;3.85;2.50;;;39.30;41.10;;;;;;4999058;28;89180;-73
2023/09/06 17:16:41;;;;;;;2.38;1.80;;;38.30;42.40;;;;;;4991784;28;86868;-75
2023/09/06 17:23:35;;;;;;;;;;;;;;;;;;;;;
2023/09/06 17:25:50;;;;;;;5.90;2.30;;;35.30;46.50;;;;;;4895750;28;86884;-75
2023/09/06 17:28:16;;;;;;;7.38;2.45;;;34.60;47.50;;;;;;5003525;28;86591;-77
2023/09/06 17:30:46;;;;;;;3.13;2.25;;;34.10;48.60;;;;;;5007679;28;87478;-76
2023/09/06 17:33:18;;;;;;;2.55;2.08;;;33.60;49.60;;;;;;5007336;28;86568;-76
2023/09/06 17:35:50;;;;;;;3.85;2.20;;;33.20;50.30;;;;;;5013056;28;90397;-76
2023/09/06 17:38:18;;;;;;;4.60;2.00;;;32.80;51.50;;;;;;5003170;28;87513;-76
2023/09/06 17:40:46;;;;;;;4.28;2.38;;;32.40;52.10;;;;;;5007058;28;86254;-76
2023/09/06 17:43:15;;;;;;;4.28;2.42;;;32.10;52.90;;;;;;5022309;28;86478;-76
2023/09/06 17:45:42;;;;;;;4.35;2.63;;;31.70;54.20;;;;;;5007824;28;87618;-76
2023/09/06 17:48:13;;;;;;;4.10;2.40;;;31.40;55.00;;;;;;4997986;28;87329;-77
2023/09/06 17:50:41;;;;;;;4.30;2.70;;;31.10;55.90;;;;;;5006678;28;86474;-77
2023/09/06 17:53:12;;;;;;;6.22;2.60;;;30.70;56.50;;;;;;5005203;28;86208;-76
2023/09/06 17:55:41;;;;;;;3.92;2.53;;;30.50;56.90;;;;;;5004816;28;87413;-77
2023/09/06 17:58:07;;;;;;;3.80;3.00;;;30.10;57.80;;;;;;5006998;28;86506;-76
2023/09/06 18:01:01;;;;;;;;;;;;;;;;;;;;;
2023/09/06 20:33:56;;;;;;;9.77;4.65;;;21.00;92.10;;;;;;4926817;28;86378;-75